sensor_id;sensor_type;location;lat;lon;timestamp;P1;durP1;ratioP1;P2;durP2;ratioP2
6663;SDS011;58749;48.022;10.922;2023-02-28T00:01:25;5.15;;;2.42;;
6663;SDS011;58749;48.022;10.922;2023-02-28T00:03:54;4.68;;;2.42;;
6663;SDS011;58749;48.022;10.922;2023-02-28T00:06:22;4.97;;;2.40;;
6663;SDS011;58749;48.022;10.922;2023-02-28T00:08:50;4.45;;;2.58;;
6663;SDS011;58749;48.022;10.922;2023-02-28T00:11:20;8.55;;;2.72;;
6663;SDS011;58749;48.022;10.922;2023-02-28T00:13:48;3.35;;;2.33;;
6663;SDS011;58749;48.022;10.922;2023-02-28T00:16:17;4.82;;;2.42;;
6663;SDS011;58749;48.022;10.922;2023-02-28T00:18:46;6.28;;;2.83;;
6663;SDS011;58749;48.022;10.922;2023-02-28T00:21:14;4.70;;;2.70;;
6663;SDS011;58749;48.022;10.922;2023-02-28T00:23:43;8.38;;;2.92;;
6663;SDS011;58749;48.022;10.922;2023-02-28T00:26:11;4.70;;;2.35;;
6663;SDS011;58749;48.022;10.922;2023-02-28T00:28:41;4.78;;;2.92;;
6663;SDS011;58749;48.022;10.922;2023-02-28T00:31:09;6.68;;;3.00;;
6663;SDS011;58749;48.022;10.922;2023-02-28T00:33:37;6.60;;;3.20;;
6663;SDS011;58749;48.022;10.922;2023-02-28T00:36:06;4.75;;;3.03;;
6663;SDS011;58749;48.022;10.922;2023-02-28T00:38:35;3.85;;;2.85;;
6663;SDS011;58749;48.022;10.922;2023-02-28T00:41:04;4.68;;;2.33;;
6663;SDS011;58749;48.022;10.922;2023-02-28T00:43:33;6.43;;;3.30;;
6663;SDS011;58749;48.022;10.922;2023-02-28T00:46:04;4.75;;;2.85;;
6663;SDS011;58749;48.022;10.922;2023-02-28T00:48:33;5.68;;;2.70;;
6663;SDS011;58749;48.022;10.922;2023-02-28T00:51:01;9.57;;;3.33;;
6663;SDS011;58749;48.022;10.922;2023-02-28T00:53:30;6.38;;;2.40;;
6663;SDS011;58749;48.022;10.922;2023-02-28T00:55:58;8.80;;;3.30;;
6663;SDS011;58749;48.022;10.922;2023-02-28T00:58:26;4.50;;;2.65;;
6663;SDS011;58749;48.022;10.922;2023-02-28T01:00:54;5.65;;;2.72;;
6663;SDS011;58749;48.022;10.922;2023-02-28T01:03:24;7.82;;;3.72;;
6663;SDS011;58749;48.022;10.922;2023-02-28T01:05:52;4.50;;;2.83;;
6663;SDS011;58749;48.022;10.922;2023-02-28T01:08:20;7.93;;;2.90;;
6663;SDS011;58749;48.022;10.922;2023-02-28T01:10:48;6.88;;;3.28;;
6663;SDS011;58749;48.022;10.922;2023-02-28T01:13:16;4.90;;;2.90;;
6663;SDS011;58749;48.022;10.922;2023-02-28T01:15:45;4.93;;;3.38;;
6663;SDS011;58749;48.022;10.922;2023-02-28T01:18:17;5.38;;;2.85;;
6663;SDS011;58749;48.022;10.922;2023-02-28T01:20:46;5.30;;;3.00;;
6663;SDS011;58749;48.022;10.922;2023-02-28T01:23:14;3.67;;;2.42;;
6663;SDS011;58749;48.022;10.922;2023-02-28T01:25:42;6.15;;;2.63;;
6663;SDS011;58749;48.022;10.922;2023-02-28T01:28:36;5.95;;;2.33;;
6663;SDS011;58749;48.022;10.922;2023-02-28T01:31:10;6.63;;;3.00;;
6663;SDS011;58749;48.022;10.922;2023-02-28T01:33:39;6.40;;;3.00;;
6663;SDS011;58749;48.022;10.922;2023-02-28T01:36:09;4.18;;;2.70;;
6663;SDS011;58749;48.022;10.922;2023-02-28T01:38:38;5.65;;;3.03;;
6663;SDS011;58749;48.022;10.922;2023-02-28T01:41:07;5.07;;;2.65;;
6663;SDS011;58749;48.022;10.922;2023-02-28T01:46:23;5.10;;;2.88;;
6663;SDS011;58749;48.022;10.922;2023-02-28T01:48:51;6.32;;;3.55;;
6663;SDS011;58749;48.022;10.922;2023-02-28T01:51:26;6.00;;;2.72;;
6663;SDS011;58749;48.022;10.922;2023-02-28T01:53:58;6.40;;;3.17;;
6663;SDS011;58749;48.022;10.922;2023-02-28T01:56:29;4.82;;;3.00;;
6663;SDS011;58749;48.022;10.922;2023-02-28T01:59:01;5.60;;;2.83;;
6663;SDS011;58749;48.022;10.922;2023-02-28T02:01:30;6.43;;;2.97;;
6663;SDS011;58749;48.022;10.922;2023-02-28T02:03:59;5.82;;;3.50;;
6663;SDS011;58749;48.022;10.922;2023-02-28T02:06:33;3.50;;;2.55;;
6663;SDS011;58749;48.022;10.922;2023-02-28T02:09:04;7.57;;;3.13;;
6663;SDS011;58749;48.022;10.922;2023-02-28T02:11:32;5.65;;;2.92;;
6663;SDS011;58749;48.022;10.922;2023-02-28T02:14:10;7.55;;;3.05;;
6663;SDS011;58749;48.022;10.922;2023-02-28T02:16:51;4.85;;;2.97;;
6663;SDS011;58749;48.022;10.922;2023-02-28T02:19:38;4.90;;;3.00;;
6663;SDS011;58749;48.022;10.922;2023-02-28T02:22:52;6.70;;;3.22;;
6663;SDS011;58749;48.022;10.922;2023-02-28T02:25:49;5.93;;;3.30;;
6663;SDS011;58749;48.022;10.922;2023-02-28T02:31:47;5.65;;;3.30;;
6663;SDS011;58749;48.022;10.922;2023-02-28T02:34:57;6.80;;;3.13;;
6663;SDS011;58749;48.022;10.922;2023-02-28T02:37:51;4.25;;;2.75;;
6663;SDS011;58749;48.022;10.922;2023-02-28T02:40:25;5.88;;;3.35;;
6663;SDS011;58749;48.022;10.922;2023-02-28T02:42:59;5.70;;;3.10;;
6663;SDS011;58749;48.022;10.922;2023-02-28T02:45:31;5.97;;;3.35;;
6663;SDS011;58749;48.022;10.922;2023-02-28T02:48:05;7.28;;;3.60;;
6663;SDS011;58749;48.022;10.922;2023-02-28T02:50:38;8.07;;;3.25;;
6663;SDS011;58749;48.022;10.922;2023-02-28T02:53:10;5.07;;;3.63;;
6663;SDS011;58749;48.022;10.922;2023-02-28T02:55:42;5.47;;;3.28;;
6663;SDS011;58749;48.022;10.922;2023-02-28T02:58:19;6.95;;;2.78;;
6663;SDS011;58749;48.022;10.922;2023-02-28T03:00:51;6.57;;;3.83;;
6663;SDS011;58749;48.022;10.922;2023-02-28T03:03:22;6.43;;;3.60;;
6663;SDS011;58749;48.022;10.922;2023-02-28T03:05:57;7.60;;;3.63;;
6663;SDS011;58749;48.022;10.922;2023-02-28T03:08:28;8.88;;;4.20;;
6663;SDS011;58749;48.022;10.922;2023-02-28T03:10:58;6.82;;;4.00;;
6663;SDS011;58749;48.022;10.922;2023-02-28T03:16:45;8.05;;;4.00;;
6663;SDS011;58749;48.022;10.922;2023-02-28T03:19:27;8.30;;;3.95;;
6663;SDS011;58749;48.022;10.922;2023-02-28T03:22:12;4.10;;;3.30;;
6663;SDS011;58749;48.022;10.922;2023-02-28T03:24:49;6.53;;;3.65;;
6663;SDS011;58749;48.022;10.922;2023-02-28T03:27:23;7.40;;;3.60;;
6663;SDS011;58749;48.022;10.922;2023-02-28T03:29:57;6.20;;;3.85;;
6663;SDS011;58749;48.022;10.922;2023-02-28T03:32:49;6.72;;;3.80;;
6663;SDS011;58749;48.022;10.922;2023-02-28T03:35:43;6.00;;;3.42;;
6663;SDS011;58749;48.022;10.922;2023-02-28T03:38:38;7.07;;;3.50;;
6663;SDS011;58749;48.022;10.922;2023-02-28T03:41:10;8.52;;;4.38;;
6663;SDS011;58749;48.022;10.922;2023-02-28T03:43:43;5.38;;;3.33;;
6663;SDS011;58749;48.022;10.922;2023-02-28T03:46:17;6.90;;;4.15;;
6663;SDS011;58749;48.022;10.922;2023-02-28T03:48:49;7.10;;;3.72;;
6663;SDS011;58749;48.022;10.922;2023-02-28T03:51:23;6.63;;;4.57;;
6663;SDS011;58749;48.022;10.922;2023-02-28T03:53:56;5.15;;;2.95;;
6663;SDS011;58749;48.022;10.922;2023-02-28T03:56:30;7.18;;;3.90;;
6663;SDS011;58749;48.022;10.922;2023-02-28T03:59:05;8.07;;;4.13;;
6663;SDS011;58749;48.022;10.922;2023-02-28T04:01:40;8.05;;;4.18;;
6663;SDS011;58749;48.022;10.922;2023-02-28T04:04:11;6.22;;;3.80;;
6663;SDS011;58749;48.022;10.922;2023-02-28T04:06:41;8.57;;;4.25;;
6663;SDS011;58749;48.022;10.922;2023-02-28T04:09:12;8.30;;;3.72;;
6663;SDS011;58749;48.022;10.922;2023-02-28T04:11:41;8.48;;;4.43;;
6663;SDS011;58749;48.022;10.922;2023-02-28T04:14:11;6.82;;;3.80;;
6663;SDS011;58749;48.022;10.922;2023-02-28T04:16:40;8.38;;;5.78;;
6663;SDS011;58749;48.022;10.922;2023-02-28T04:19:09;6.85;;;4.53;;
6663;SDS011;58749;48.022;10.922;2023-02-28T04:21:40;7.80;;;4.82;;
6663;SDS011;58749;48.022;10.922;2023-02-28T04:24:11;7.53;;;4.85;;
6663;SDS011;58749;48.022;10.922;2023-02-28T04:26:41;5.57;;;4.13;;
6663;SDS011;58749;48.022;10.922;2023-02-28T04:29:11;7.13;;;4.32;;
6663;SDS011;58749;48.022;10.922;2023-02-28T04:31:40;11.52;;;4.40;;
6663;SDS011;58749;48.022;10.922;2023-02-28T04:34:08;6.03;;;4.00;;
6663;SDS011;58749;48.022;10.922;2023-02-28T04:36:36;8.00;;;4.40;;
6663;SDS011;58749;48.022;10.922;2023-02-28T04:39:04;6.38;;;4.32;;
6663;SDS011;58749;48.022;10.922;2023-02-28T04:41:34;9.20;;;5.38;;
6663;SDS011;58749;48.022;10.922;2023-02-28T04:44:02;8.07;;;4.70;;
6663;SDS011;58749;48.022;10.922;2023-02-28T04:46:33;8.88;;;3.65;;
6663;SDS011;58749;48.022;10.922;2023-02-28T04:49:01;8.67;;;4.47;;
6663;SDS011;58749;48.022;10.922;2023-02-28T04:51:30;8.45;;;5.43;;
6663;SDS011;58749;48.022;10.922;2023-02-28T04:53:58;13.25;;;5.40;;
6663;SDS011;58749;48.022;10.922;2023-02-28T04:56:26;8.25;;;4.75;;
6663;SDS011;58749;48.022;10.922;2023-02-28T04:58:55;7.88;;;4.63;;
6663;SDS011;58749;48.022;10.922;2023-02-28T05:01:24;7.50;;;4.55;;
6663;SDS011;58749;48.022;10.922;2023-02-28T05:03:54;10.90;;;4.75;;
6663;SDS011;58749;48.022;10.922;2023-02-28T05:06:24;9.65;;;5.13;;
6663;SDS011;58749;48.022;10.922;2023-02-28T05:08:54;11.70;;;5.55;;
6663;SDS011;58749;48.022;10.922;2023-02-28T05:11:23;11.45;;;6.57;;
6663;SDS011;58749;48.022;10.922;2023-02-28T05:13:54;10.73;;;6.55;;
6663;SDS011;58749;48.022;10.922;2023-02-28T05:16:23;13.52;;;8.18;;
6663;SDS011;58749;48.022;10.922;2023-02-28T05:18:51;9.88;;;5.35;;
6663;SDS011;58749;48.022;10.922;2023-02-28T05:21:22;10.27;;;6.40;;
6663;SDS011;58749;48.022;10.922;2023-02-28T05:23:54;11.93;;;6.35;;
6663;SDS011;58749;48.022;10.922;2023-02-28T05:26:23;7.80;;;4.38;;
6663;SDS011;58749;48.022;10.922;2023-02-28T05:28:52;11.18;;;6.47;;
6663;SDS011;58749;48.022;10.922;2023-02-28T05:31:22;14.65;;;6.22;;
6663;SDS011;58749;48.022;10.922;2023-02-28T05:33:51;15.00;;;7.70;;
6663;SDS011;58749;48.022;10.922;2023-02-28T05:36:19;11.77;;;6.82;;
6663;SDS011;58749;48.022;10.922;2023-02-28T05:38:47;16.98;;;9.27;;
6663;SDS011;58749;48.022;10.922;2023-02-28T05:41:17;14.23;;;7.68;;
6663;SDS011;58749;48.022;10.922;2023-02-28T05:43:46;16.67;;;8.88;;
6663;SDS011;58749;48.022;10.922;2023-02-28T05:46:15;13.40;;;7.68;;
6663;SDS011;58749;48.022;10.922;2023-02-28T05:48:45;16.50;;;9.00;;
6663;SDS011;58749;48.022;10.922;2023-02-28T05:51:14;15.38;;;8.52;;
6663;SDS011;58749;48.022;10.922;2023-02-28T05:53:42;13.18;;;6.97;;
6663;SDS011;58749;48.022;10.922;2023-02-28T05:56:10;14.95;;;9.57;;
6663;SDS011;58749;48.022;10.922;2023-02-28T05:58:39;13.00;;;7.47;;
6663;SDS011;58749;48.022;10.922;2023-02-28T06:01:20;19.30;;;10.00;;
6663;SDS011;58749;48.022;10.922;2023-02-28T06:03:59;14.70;;;8.13;;
6663;SDS011;58749;48.022;10.922;2023-02-28T06:06:28;15.52;;;8.18;;
6663;SDS011;58749;48.022;10.922;2023-02-28T06:08:56;15.77;;;8.68;;
6663;SDS011;58749;48.022;10.922;2023-02-28T06:11:24;16.63;;;10.35;;
6663;SDS011;58749;48.022;10.922;2023-02-28T06:13:54;16.73;;;10.10;;
6663;SDS011;58749;48.022;10.922;2023-02-28T06:16:23;12.60;;;8.25;;
6663;SDS011;58749;48.022;10.922;2023-02-28T06:18:51;19.00;;;9.95;;
6663;SDS011;58749;48.022;10.922;2023-02-28T06:21:23;16.40;;;10.38;;
6663;SDS011;58749;48.022;10.922;2023-02-28T06:23:54;19.20;;;10.70;;
6663;SDS011;58749;48.022;10.922;2023-02-28T06:26:23;22.15;;;11.65;;
6663;SDS011;58749;48.022;10.922;2023-02-28T06:28:51;17.42;;;10.63;;
6663;SDS011;58749;48.022;10.922;2023-02-28T06:31:20;18.42;;;10.85;;
6663;SDS011;58749;48.022;10.922;2023-02-28T06:33:48;21.02;;;12.40;;
6663;SDS011;58749;48.022;10.922;2023-02-28T06:36:17;14.48;;;7.32;;
6663;SDS011;58749;48.022;10.922;2023-02-28T06:38:47;18.30;;;9.20;;
6663;SDS011;58749;48.022;10.922;2023-02-28T06:41:21;16.02;;;9.40;;
6663;SDS011;58749;48.022;10.922;2023-02-28T06:43:50;17.88;;;11.20;;
6663;SDS011;58749;48.022;10.922;2023-02-28T06:46:19;18.90;;;10.57;;
6663;SDS011;58749;48.022;10.922;2023-02-28T06:48:47;15.05;;;9.55;;
6663;SDS011;58749;48.022;10.922;2023-02-28T06:51:16;16.70;;;9.52;;
6663;SDS011;58749;48.022;10.922;2023-02-28T06:53:48;17.20;;;9.50;;
6663;SDS011;58749;48.022;10.922;2023-02-28T06:56:35;16.48;;;9.68;;
6663;SDS011;58749;48.022;10.922;2023-02-28T06:59:03;16.70;;;9.20;;
6663;SDS011;58749;48.022;10.922;2023-02-28T07:01:31;16.65;;;8.68;;
6663;SDS011;58749;48.022;10.922;2023-02-28T07:04:00;23.73;;;10.52;;
6663;SDS011;58749;48.022;10.922;2023-02-28T07:06:28;18.80;;;10.10;;
6663;SDS011;58749;48.022;10.922;2023-02-28T07:08:57;17.52;;;9.90;;
6663;SDS011;58749;48.022;10.922;2023-02-28T07:11:27;21.13;;;12.55;;
6663;SDS011;58749;48.022;10.922;2023-02-28T07:13:56;17.05;;;9.00;;
6663;SDS011;58749;48.022;10.922;2023-02-28T07:16:25;16.58;;;10.18;;
6663;SDS011;58749;48.022;10.922;2023-02-28T07:18:53;18.90;;;10.48;;
6663;SDS011;58749;48.022;10.922;2023-02-28T07:21:22;18.48;;;11.38;;
6663;SDS011;58749;48.022;10.922;2023-02-28T07:23:50;17.05;;;9.07;;
6663;SDS011;58749;48.022;10.922;2023-02-28T07:26:20;15.75;;;9.55;;
6663;SDS011;58749;48.022;10.922;2023-02-28T07:28:48;15.93;;;9.63;;
6663;SDS011;58749;48.022;10.922;2023-02-28T07:31:17;18.92;;;11.55;;
6663;SDS011;58749;48.022;10.922;2023-02-28T07:33:45;18.30;;;10.45;;
6663;SDS011;58749;48.022;10.922;2023-02-28T07:36:14;14.63;;;9.90;;
6663;SDS011;58749;48.022;10.922;2023-02-28T07:38:45;16.98;;;10.63;;
6663;SDS011;58749;48.022;10.922;2023-02-28T07:41:16;18.17;;;10.33;;
6663;SDS011;58749;48.022;10.922;2023-02-28T07:43:47;18.75;;;11.02;;
6663;SDS011;58749;48.022;10.922;2023-02-28T07:46:16;29.30;;;14.05;;
6663;SDS011;58749;48.022;10.922;2023-02-28T07:48:46;18.92;;;10.30;;
6663;SDS011;58749;48.022;10.922;2023-02-28T07:51:14;21.02;;;11.48;;
6663;SDS011;58749;48.022;10.922;2023-02-28T07:53:42;17.73;;;11.05;;
6663;SDS011;58749;48.022;10.922;2023-02-28T07:56:10;16.13;;;9.57;;
6663;SDS011;58749;48.022;10.922;2023-02-28T07:58:39;21.98;;;11.57;;
6663;SDS011;58749;48.022;10.922;2023-02-28T08:01:10;17.90;;;10.27;;
6663;SDS011;58749;48.022;10.922;2023-02-28T08:03:40;19.75;;;12.20;;
6663;SDS011;58749;48.022;10.922;2023-02-28T08:06:14;23.60;;;12.48;;
6663;SDS011;58749;48.022;10.922;2023-02-28T08:08:44;24.33;;;13.77;;
6663;SDS011;58749;48.022;10.922;2023-02-28T08:11:13;20.38;;;11.52;;
6663;SDS011;58749;48.022;10.922;2023-02-28T08:13:42;38.78;;;17.67;;
6663;SDS011;58749;48.022;10.922;2023-02-28T08:16:13;18.45;;;11.43;;
6663;SDS011;58749;48.022;10.922;2023-02-28T08:18:48;17.30;;;10.82;;
6663;SDS011;58749;48.022;10.922;2023-02-28T08:21:17;14.95;;;9.77;;
6663;SDS011;58749;48.022;10.922;2023-02-28T08:23:46;15.70;;;10.55;;
6663;SDS011;58749;48.022;10.922;2023-02-28T08:26:14;18.15;;;9.52;;
6663;SDS011;58749;48.022;10.922;2023-02-28T08:28:43;16.85;;;9.60;;
6663;SDS011;58749;48.022;10.922;2023-02-28T08:31:13;18.88;;;11.88;;
6663;SDS011;58749;48.022;10.922;2023-02-28T08:33:43;15.38;;;10.68;;
6663;SDS011;58749;48.022;10.922;2023-02-28T08:36:11;16.17;;;9.77;;
6663;SDS011;58749;48.022;10.922;2023-02-28T08:38:41;16.23;;;10.23;;
6663;SDS011;58749;48.022;10.922;2023-02-28T08:41:10;16.67;;;10.93;;
6663;SDS011;58749;48.022;10.922;2023-02-28T08:43:39;17.15;;;10.15;;
6663;SDS011;58749;48.022;10.922;2023-02-28T08:46:08;17.60;;;11.23;;
6663;SDS011;58749;48.022;10.922;2023-02-28T08:48:40;15.55;;;10.15;;
6663;SDS011;58749;48.022;10.922;2023-02-28T08:51:09;19.20;;;11.50;;
6663;SDS011;58749;48.022;10.922;2023-02-28T08:53:39;16.92;;;10.18;;
6663;SDS011;58749;48.022;10.922;2023-02-28T08:56:08;13.93;;;9.07;;
6663;SDS011;58749;48.022;10.922;2023-02-28T08:58:37;16.88;;;10.93;;
6663;SDS011;58749;48.022;10.922;2023-02-28T09:01:09;17.38;;;10.23;;
6663;SDS011;58749;48.022;10.922;2023-02-28T09:03:41;17.58;;;9.93;;
6663;SDS011;58749;48.022;10.922;2023-02-28T09:06:10;16.27;;;10.32;;
6663;SDS011;58749;48.022;10.922;2023-02-28T09:08:39;17.38;;;9.57;;
6663;SDS011;58749;48.022;10.922;2023-02-28T09:11:07;17.15;;;10.60;;
6663;SDS011;58749;48.022;10.922;2023-02-28T09:13:36;13.70;;;8.70;;
6663;SDS011;58749;48.022;10.922;2023-02-28T09:16:06;15.38;;;9.50;;
6663;SDS011;58749;48.022;10.922;2023-02-28T09:18:36;14.15;;;9.48;;
6663;SDS011;58749;48.022;10.922;2023-02-28T09:21:07;12.85;;;8.30;;
6663;SDS011;58749;48.022;10.922;2023-02-28T09:23:37;16.35;;;9.98;;
6663;SDS011;58749;48.022;10.922;2023-02-28T09:26:13;16.05;;;10.73;;
6663;SDS011;58749;48.022;10.922;2023-02-28T09:28:43;19.52;;;11.52;;
6663;SDS011;58749;48.022;10.922;2023-02-28T09:31:12;14.95;;;9.05;;
6663;SDS011;58749;48.022;10.922;2023-02-28T09:33:42;18.33;;;10.32;;
6663;SDS011;58749;48.022;10.922;2023-02-28T09:36:11;13.65;;;8.45;;
6663;SDS011;58749;48.022;10.922;2023-02-28T09:38:40;16.77;;;9.70;;
6663;SDS011;58749;48.022;10.922;2023-02-28T09:41:12;18.60;;;10.85;;
6663;SDS011;58749;48.022;10.922;2023-02-28T09:43:43;20.77;;;12.18;;
6663;SDS011;58749;48.022;10.922;2023-02-28T09:46:18;17.55;;;10.60;;
6663;SDS011;58749;48.022;10.922;2023-02-28T09:48:54;19.45;;;12.65;;
6663;SDS011;58749;48.022;10.922;2023-02-28T09:51:30;18.60;;;10.93;;
6663;SDS011;58749;48.022;10.922;2023-02-28T09:54:05;15.10;;;9.43;;
6663;SDS011;58749;48.022;10.922;2023-02-28T09:56:36;19.55;;;11.35;;
6663;SDS011;58749;48.022;10.922;2023-02-28T09:59:10;18.95;;;12.13;;
6663;SDS011;58749;48.022;10.922;2023-02-28T10:01:46;14.75;;;10.35;;
6663;SDS011;58749;48.022;10.922;2023-02-28T10:04:28;20.30;;;10.80;;
6663;SDS011;58749;48.022;10.922;2023-02-28T10:07:10;17.38;;;11.15;;
6663;SDS011;58749;48.022;10.922;2023-02-28T10:09:45;14.68;;;9.13;;
6663;SDS011;58749;48.022;10.922;2023-02-28T10:12:17;19.10;;;11.57;;
6663;SDS011;58749;48.022;10.922;2023-02-28T10:14:49;22.45;;;12.88;;
6663;SDS011;58749;48.022;10.922;2023-02-28T10:17:21;17.10;;;11.85;;
6663;SDS011;58749;48.022;10.922;2023-02-28T10:24:57;17.48;;;10.98;;
6663;SDS011;58749;48.022;10.922;2023-02-28T10:27:32;18.52;;;12.50;;
6663;SDS011;58749;48.022;10.922;2023-02-28T10:30:01;17.85;;;11.25;;
6663;SDS011;58749;48.022;10.922;2023-02-28T10:32:31;17.90;;;10.15;;
6663;SDS011;58749;48.022;10.922;2023-02-28T10:35:09;18.13;;;10.73;;
6663;SDS011;58749;48.022;10.922;2023-02-28T10:37:44;23.60;;;12.02;;
6663;SDS011;58749;48.022;10.922;2023-02-28T10:40:25;15.82;;;10.40;;
6663;SDS011;58749;48.022;10.922;2023-02-28T10:42:57;16.60;;;11.13;;
6663;SDS011;58749;48.022;10.922;2023-02-28T10:45:26;18.40;;;12.10;;
6663;SDS011;58749;48.022;10.922;2023-02-28T10:47:56;17.08;;;10.88;;
6663;SDS011;58749;48.022;10.922;2023-02-28T10:50:28;22.00;;;12.98;;
6663;SDS011;58749;48.022;10.922;2023-02-28T10:53:24;19.30;;;11.15;;
6663;SDS011;58749;48.022;10.922;2023-02-28T10:56:16;17.65;;;10.95;;
6663;SDS011;58749;48.022;10.922;2023-02-28T10:58:49;17.98;;;11.57;;
6663;SDS011;58749;48.022;10.922;2023-02-28T11:01:24;25.55;;;13.98;;
6663;SDS011;58749;48.022;10.922;2023-02-28T11:04:01;21.15;;;13.70;;
6663;SDS011;58749;48.022;10.922;2023-02-28T11:06:31;19.40;;;10.57;;
6663;SDS011;58749;48.022;10.922;2023-02-28T11:09:04;19.13;;;12.27;;
6663;SDS011;58749;48.022;10.922;2023-02-28T11:14:17;19.40;;;12.32;;
6663;SDS011;58749;48.022;10.922;2023-02-28T11:16:47;26.77;;;12.55;;
6663;SDS011;58749;48.022;10.922;2023-02-28T11:19:19;26.95;;;13.20;;
6663;SDS011;58749;48.022;10.922;2023-02-28T11:21:53;19.05;;;11.45;;
6663;SDS011;58749;48.022;10.922;2023-02-28T11:24:27;31.88;;;16.50;;
6663;SDS011;58749;48.022;10.922;2023-02-28T11:26:59;25.35;;;14.60;;
6663;SDS011;58749;48.022;10.922;2023-02-28T11:29:31;19.08;;;12.15;;
6663;SDS011;58749;48.022;10.922;2023-02-28T11:32:03;18.20;;;10.88;;
6663;SDS011;58749;48.022;10.922;2023-02-28T11:34:40;27.27;;;13.93;;
6663;SDS011;58749;48.022;10.922;2023-02-28T11:37:12;24.70;;;14.23;;
6663;SDS011;58749;48.022;10.922;2023-02-28T11:39:53;24.85;;;15.68;;
6663;SDS011;58749;48.022;10.922;2023-02-28T11:42:32;21.65;;;13.13;;
6663;SDS011;58749;48.022;10.922;2023-02-28T11:45:21;20.03;;;12.53;;
6663;SDS011;58749;48.022;10.922;2023-02-28T11:48:01;19.30;;;11.02;;
6663;SDS011;58749;48.022;10.922;2023-02-28T11:50:51;18.00;;;10.80;;
6663;SDS011;58749;48.022;10.922;2023-02-28T11:56:36;17.90;;;11.38;;
6663;SDS011;58749;48.022;10.922;2023-02-28T11:59:14;17.40;;;11.32;;
6663;SDS011;58749;48.022;10.922;2023-02-28T12:02:08;17.25;;;10.20;;
6663;SDS011;58749;48.022;10.922;2023-02-28T12:05:20;18.63;;;10.65;;
6663;SDS011;58749;48.022;10.922;2023-02-28T12:08:05;19.40;;;12.02;;
6663;SDS011;58749;48.022;10.922;2023-02-28T12:10:51;17.47;;;11.77;;
6663;SDS011;58749;48.022;10.922;2023-02-28T12:13:45;21.95;;;13.60;;
6663;SDS011;58749;48.022;10.922;2023-02-28T12:19:23;21.92;;;13.63;;
6663;SDS011;58749;48.022;10.922;2023-02-28T12:25:09;18.00;;;11.75;;
6663;SDS011;58749;48.022;10.922;2023-02-28T12:28:23;17.77;;;11.18;;
6663;SDS011;58749;48.022;10.922;2023-02-28T12:31:08;18.73;;;12.60;;
6663;SDS011;58749;48.022;10.922;2023-02-28T12:33:50;17.65;;;12.05;;
6663;SDS011;58749;48.022;10.922;2023-02-28T12:36:32;16.20;;;10.82;;
6663;SDS011;58749;48.022;10.922;2023-02-28T12:39:11;17.85;;;10.52;;
6663;SDS011;58749;48.022;10.922;2023-02-28T12:41:51;15.93;;;10.65;;
6663;SDS011;58749;48.022;10.922;2023-02-28T12:44:39;16.67;;;9.95;;
6663;SDS011;58749;48.022;10.922;2023-02-28T12:47:23;16.85;;;10.98;;
6663;SDS011;58749;48.022;10.922;2023-02-28T12:49:56;16.95;;;10.75;;
6663;SDS011;58749;48.022;10.922;2023-02-28T12:52:43;19.02;;;10.35;;
6663;SDS011;58749;48.022;10.922;2023-02-28T12:55:30;20.33;;;12.48;;
6663;SDS011;58749;48.022;10.922;2023-02-28T12:58:33;14.85;;;9.85;;
6663;SDS011;58749;48.022;10.922;2023-02-28T13:01:45;19.77;;;10.85;;
6663;SDS011;58749;48.022;10.922;2023-02-28T13:11:33;15.93;;;10.07;;
6663;SDS011;58749;48.022;10.922;2023-02-28T13:14:16;17.38;;;10.05;;
6663;SDS011;58749;48.022;10.922;2023-02-28T13:17:01;17.50;;;10.77;;
6663;SDS011;58749;48.022;10.922;2023-02-28T13:20:01;23.73;;;10.52;;
6663;SDS011;58749;48.022;10.922;2023-02-28T13:22:43;18.27;;;11.43;;
6663;SDS011;58749;48.022;10.922;2023-02-28T13:38:16;17.88;;;10.95;;
6663;SDS011;58749;48.022;10.922;2023-02-28T13:40:58;20.33;;;12.32;;
6663;SDS011;58749;48.022;10.922;2023-02-28T13:44:19;18.30;;;11.23;;
6663;SDS011;58749;48.022;10.922;2023-02-28T13:47:19;19.05;;;10.35;;
6663;SDS011;58749;48.022;10.922;2023-02-28T13:50:23;17.27;;;11.02;;
6663;SDS011;58749;48.022;10.922;2023-02-28T13:53:13;14.35;;;10.45;;
6663;SDS011;58749;48.022;10.922;2023-02-28T13:59:27;18.60;;;10.10;;
6663;SDS011;58749;48.022;10.922;2023-02-28T14:05:11;21.27;;;11.57;;
6663;SDS011;58749;48.022;10.922;2023-02-28T14:07:45;17.50;;;10.80;;
6663;SDS011;58749;48.022;10.922;2023-02-28T14:10:26;14.80;;;11.10;;
6663;SDS011;58749;48.022;10.922;2023-02-28T14:13:10;21.55;;;12.52;;
6663;SDS011;58749;48.022;10.922;2023-02-28T14:15:57;17.08;;;10.98;;
6663;SDS011;58749;48.022;10.922;2023-02-28T14:21:28;15.60;;;10.63;;
6663;SDS011;58749;48.022;10.922;2023-02-28T14:24:24;21.13;;;11.77;;
6663;SDS011;58749;48.022;10.922;2023-02-28T14:27:26;16.42;;;11.15;;
6663;SDS011;58749;48.022;10.922;2023-02-28T14:33:25;16.85;;;12.13;;
6663;SDS011;58749;48.022;10.922;2023-02-28T14:36:20;15.48;;;10.68;;
6663;SDS011;58749;48.022;10.922;2023-02-28T14:39:10;17.80;;;11.60;;
6663;SDS011;58749;48.022;10.922;2023-02-28T14:41:47;18.05;;;11.35;;
6663;SDS011;58749;48.022;10.922;2023-02-28T14:44:31;17.55;;;11.55;;
6663;SDS011;58749;48.022;10.922;2023-02-28T14:47:13;19.30;;;11.55;;
6663;SDS011;58749;48.022;10.922;2023-02-28T14:49:59;17.30;;;11.63;;
6663;SDS011;58749;48.022;10.922;2023-02-28T14:52:42;19.10;;;11.95;;
6663;SDS011;58749;48.022;10.922;2023-02-28T14:55:26;21.00;;;13.38;;
6663;SDS011;58749;48.022;10.922;2023-02-28T14:58:06;18.90;;;12.30;;
6663;SDS011;58749;48.022;10.922;2023-02-28T15:00:57;21.80;;;12.02;;
6663;SDS011;58749;48.022;10.922;2023-02-28T15:03:35;21.45;;;12.13;;
6663;SDS011;58749;48.022;10.922;2023-02-28T15:06:16;19.67;;;12.68;;
6663;SDS011;58749;48.022;10.922;2023-02-28T15:09:13;21.15;;;12.43;;
6663;SDS011;58749;48.022;10.922;2023-02-28T15:11:52;18.02;;;11.32;;
6663;SDS011;58749;48.022;10.922;2023-02-28T15:14:27;19.10;;;11.57;;
6663;SDS011;58749;48.022;10.922;2023-02-28T15:16:59;19.17;;;11.93;;
6663;SDS011;58749;48.022;10.922;2023-02-28T15:19:50;17.88;;;11.57;;
6663;SDS011;58749;48.022;10.922;2023-02-28T15:22:24;20.52;;;12.43;;
6663;SDS011;58749;48.022;10.922;2023-02-28T15:25:00;16.83;;;10.93;;
6663;SDS011;58749;48.022;10.922;2023-02-28T15:27:34;31.35;;;12.85;;
6663;SDS011;58749;48.022;10.922;2023-02-28T15:30:19;19.20;;;12.07;;
6663;SDS011;58749;48.022;10.922;2023-02-28T15:36:07;18.90;;;11.88;;
6663;SDS011;58749;48.022;10.922;2023-02-28T15:39:00;22.55;;;11.90;;
6663;SDS011;58749;48.022;10.922;2023-02-28T15:41:46;20.17;;;12.90;;
6663;SDS011;58749;48.022;10.922;2023-02-28T15:44:35;21.15;;;11.77;;
6663;SDS011;58749;48.022;10.922;2023-02-28T15:47:22;19.02;;;11.80;;
6663;SDS011;58749;48.022;10.922;2023-02-28T15:50:19;18.80;;;11.98;;
6663;SDS011;58749;48.022;10.922;2023-02-28T15:53:17;17.67;;;11.57;;
6663;SDS011;58749;48.022;10.922;2023-02-28T15:59:18;19.23;;;11.55;;
6663;SDS011;58749;48.022;10.922;2023-02-28T16:02:18;16.45;;;10.90;;
6663;SDS011;58749;48.022;10.922;2023-02-28T16:05:13;20.73;;;13.10;;
6663;SDS011;58749;48.022;10.922;2023-02-28T16:08:34;23.25;;;12.27;;
6663;SDS011;58749;48.022;10.922;2023-02-28T16:11:12;20.95;;;12.02;;
6663;SDS011;58749;48.022;10.922;2023-02-28T16:13:52;19.75;;;12.43;;
6663;SDS011;58749;48.022;10.922;2023-02-28T16:16:32;18.90;;;12.40;;
6663;SDS011;58749;48.022;10.922;2023-02-28T16:22:28;17.33;;;11.90;;
6663;SDS011;58749;48.022;10.922;2023-02-28T16:25:28;16.27;;;11.25;;
6663;SDS011;58749;48.022;10.922;2023-02-28T16:28:07;20.42;;;12.25;;
6663;SDS011;58749;48.022;10.922;2023-02-28T16:30:55;17.42;;;12.35;;